Time;durP1;ratioP1;P1;durP2;ratioP2;P2;SDS_P1;SDS_P2;PMS_P1;PMS_P2;Temp;Humidity;BMP_temperature;BMP_pressure;BME280_temperature;BME280_humidity;BME280_pressure;Samples;Min_cycle;Max_cycle;Signal;HPM_P1;HPM_P2
2022/06/14 00:00:56;;;;;;;5.78;3.13;;;;;;;16.90;81.45;100646.31;5028995;28;20052;-62
2022/06/14 00:03:32;;;;;;;4.95;3.17;;;;;;;16.87;80.78;100654.50;5028962;28;20120;-62
2022/06/14 00:06:03;;;;;;;7.78;4.03;;;;;;;16.86;80.17;100650.97;5029386;28;20735;-62
2022/06/14 00:08:28;;;;;;;6.97;3.17;;;;;;;16.87;78.64;100646.44;5029738;28;20413;-62
2022/06/14 00:10:56;;;;;;;7.00;3.25;;;;;;;16.86;78.93;100650.97;5043500;28;20047;-62
2022/06/14 00:13:23;;;;;;;6.50;2.78;;;;;;;16.87;79.20;100641.94;5051351;28;20520;-62
2022/06/14 00:15:48;;;;;;;5.63;3.20;;;;;;;16.80;78.63;100628.91;5051712;28;20115;-62
2022/06/14 00:18:15;;;;;;;7.30;3.60;;;;;;;16.87;79.27;100641.94;5068834;28;20460;-62
2022/06/14 00:20:42;;;;;;;7.82;3.60;;;;;;;16.89;79.63;100632.00;5072363;28;20385;-62
2022/06/14 00:23:08;;;;;;;6.68;3.30;;;;;;;16.87;79.27;100633.00;5071902;28;20111;-62
2022/06/14 00:25:37;;;;;;;6.65;3.70;;;;;;;16.83;80.14;100631.44;5042891;28;20028;-62
2022/06/14 00:28:04;;;;;;;8.38;3.60;;;;;;;16.85;80.26;100637.63;5051607;28;20029;-62
2022/06/14 00:30:30;;;;;;;7.88;3.58;;;;;;;16.81;80.11;100636.00;5051296;28;20425;-62
2022/06/14 00:32:56;;;;;;;7.13;3.45;;;;;;;16.68;80.07;100629.47;5051689;28;20025;-62
2022/06/14 00:35:21;;;;;;;8.90;4.30;;;;;;;16.74;81.05;100634.53;5051696;28;20035;-62
2022/06/14 00:37:47;;;;;;;6.95;3.30;;;;;;;16.74;80.88;100629.19;5051547;28;20536;-62
2022/06/14 00:40:17;;;;;;;5.50;3.30;;;;;;;16.72;80.56;100628.41;5051054;28;20105;-62
2022/06/14 00:42:42;;;;;;;6.07;3.33;;;;;;;16.67;80.90;100619.69;5050029;28;20037;-62
2022/06/14 00:45:13;;;;;;;6.38;3.50;;;;;;;16.71;80.43;100626.63;5033668;28;20083;-62
2022/06/14 00:47:44;;;;;;;8.35;3.80;;;;;;;16.66;81.59;100620.63;5030584;28;20036;-62
2022/06/14 00:50:16;;;;;;;5.75;3.60;;;;;;;16.68;80.53;100629.47;5030585;28;20029;-62
2022/06/14 00:53:04;;;;;;;8.07;3.38;;;;;;;16.67;80.46;100620.53;5030398;28;20473;-62
2022/06/14 00:55:40;;;;;;;8.07;3.45;;;;;;;16.65;81.34;100618.88;5030496;28;20029;-62
2022/06/14 00:58:19;;;;;;;6.18;2.72;;;;;;;16.66;80.42;100620.63;5031966;28;20125;-62
2022/06/14 01:00:51;;;;;;;6.82;3.38;;;;;;;16.58;81.74;100615.63;5031796;28;20456;-62
2022/06/14 01:03:23;;;;;;;6.00;3.60;;;;;;;16.55;82.04;100612.22;5031891;28;20025;-62
2022/06/14 01:06:07;;;;;;;7.82;3.70;;;;;;;16.52;81.46;100609.66;5046953;28;20563;-62
2022/06/14 01:08:50;;;;;;;9.48;5.15;;;;;;;16.49;82.31;100607.97;5051037;28;20064;-62
2022/06/14 01:11:27;;;;;;;6.78;3.47;;;;;;;16.38;83.23;100601.34;5049071;28;20060;-62
2022/06/14 01:13:52;;;;;;;9.05;3.65;;;;;;;16.39;83.47;100600.41;5049251;28;20036;-62
2022/06/14 01:16:18;;;;;;;9.43;3.58;;;;;;;16.37;83.34;100604.97;5050621;28;20032;-62
2022/06/14 01:18:44;;;;;;;5.25;3.50;;;;;;;16.35;83.80;100598.81;5069263;28;20037;-62
2022/06/14 01:21:10;;;;;;;8.07;3.17;;;;;;;16.33;84.61;100611.41;5033073;28;20029;-62
2022/06/14 01:23:35;;;;;;;6.63;3.90;;;;;;;16.27;83.33;100606.34;5030421;28;20029;-62
2022/06/14 01:26:10;;;;;;;6.80;3.42;;;;;;;16.26;84.16;100607.31;5047989;28;20060;-62
2022/06/14 01:28:39;;;;;;;10.02;3.70;;;;;;;16.28;83.89;100608.09;5051138;28;20029;-62
2022/06/14 01:31:05;;;;;;;8.50;3.72;;;;;;;16.28;85.00;100614.34;5049708;28;20044;-62
2022/06/14 01:33:39;;;;;;;8.05;4.07;;;;;;;16.29;84.31;100612.53;5033164;28;20521;-62
2022/06/14 01:36:10;;;;;;;;;;;;;;;16.24;84.02;100612.75;5037153;28;20366;-62
2022/06/14 01:38:36;;;;;;;7.10;3.53;;;;;;;16.22;84.02;100619.13;5042693;28;19928;-62
2022/06/14 01:41:25;;;;;;;6.50;3.42;;;;;;;16.21;85.07;100622.75;5043366;28;20504;-62
2022/06/14 01:44:05;;;;;;;4.57;3.42;;;;;;;16.00;83.89;100580.75;5044189;28;20428;-62
2022/06/14 01:46:55;;;;;;;9.73;3.75;;;;;;;16.18;83.80;100612.13;5029259;28;20033;-62
2022/06/14 01:52:38;;;;;;;6.63;4.03;;;;;;;16.07;83.70;100603.69;5042273;28;20451;-62
2022/06/14 01:55:25;;;;;;;7.03;3.72;;;;;;;16.01;84.20;100599.50;5048083;28;20071;-62
2022/06/14 01:58:19;;;;;;;9.27;3.88;;;;;;;16.02;83.76;100603.03;5040431;28;20067;-62
2022/06/14 02:01:15;;;;;;;5.70;3.70;;;;;;;15.89;83.68;100578.59;5041847;28;20040;-63
2022/06/14 02:06:55;;;;;;;5.70;3.42;;;;;;;15.89;83.52;100597.38;5048165;28;20503;-62
2022/06/14 02:09:41;;;;;;;11.93;4.30;;;;;;;15.87;83.46;100595.69;5048851;28;20049;-62
2022/06/14 02:12:11;;;;;;;6.97;3.58;;;;;;;15.82;84.29;100593.22;5039572;28;20083;-62
2022/06/14 02:14:48;;;;;;;6.47;3.67;;;;;;;15.77;83.57;100590.75;5049182;28;20136;-62
2022/06/14 02:17:20;;;;;;;6.55;3.88;;;;;;;15.77;83.89;100589.84;5049456;28;20075;-62
2022/06/14 02:19:54;;;;;;;7.13;3.53;;;;;;;15.69;85.28;100587.53;5048694;28;20021;-63
2022/06/14 02:22:30;;;;;;;6.45;3.22;;;;;;;15.66;85.40;100576.06;5045842;28;20127;-63
2022/06/14 02:25:01;;;;;;;7.35;3.75;;;;;;;15.70;85.01;100578.53;5039508;28;20028;-62
2022/06/14 02:27:45;;;;;;;8.10;3.80;;;;;;;15.70;85.00;100591.06;5033935;28;20025;-62
2022/06/14 02:30:16;;;;;;;;;;;;;;;15.64;85.54;100584.19;5034417;28;20527;-62
2022/06/14 02:32:50;;;;;;;5.50;3.22;;;;;;;15.67;85.97;100589.41;5033778;28;19949;-62
2022/06/14 02:35:41;;;;;;;6.95;3.47;;;;;;;15.67;84.73;100592.09;5033933;28;20116;-63
2022/06/14 02:38:42;;;;;;;7.40;3.40;;;;;;;15.67;85.70;100586.72;5032505;28;20104;-63
2022/06/14 02:41:20;;;;;;;10.75;3.92;;;;;;;15.67;85.21;100588.53;5032369;28;20084;-62
2022/06/14 02:43:56;;;;;;;9.07;4.53;;;;;;;15.70;85.24;100594.63;5037605;28;20057;-62
2022/06/14 02:46:31;;;;;;;6.20;3.65;;;;;;;15.70;84.92;100600.00;5052375;28;20032;-62
2022/06/14 02:49:15;;;;;;;7.47;3.45;;;;;;;15.66;84.68;100595.72;5052170;28;20024;-62
2022/06/14 02:51:56;;;;;;;5.75;3.55;;;;;;;15.63;86.09;100582.41;5052910;28;20108;-62
2022/06/14 02:54:29;;;;;;;6.50;4.20;;;;;;;15.65;84.06;100593.97;5045885;28;20029;-63
2022/06/14 02:57:01;;;;;;;7.82;4.22;;;;;;;15.62;82.90;100602.16;5032649;28;20029;-62
2022/06/14 02:59:33;;;;;;;13.35;4.93;;;;;;;15.64;83.71;100588.66;5033995;28;20041;-62
2022/06/14 03:02:02;;;;;;;7.63;4.30;;;;;;;15.68;83.54;100590.28;5051848;28;20083;-62
2022/06/14 03:04:34;;;;;;;7.82;3.90;;;;;;;15.70;83.59;100589.25;5053668;28;20033;-62
2022/06/14 03:07:10;;;;;;;7.63;3.92;;;;;;;15.72;83.51;100592.75;5053918;28;20091;-62
2022/06/14 03:09:37;;;;;;;6.00;4.00;;;;;;;15.73;83.73;100586.44;5071218;28;20115;-62
2022/06/14 03:12:08;;;;;;;7.28;3.92;;;;;;;15.67;83.38;100589.41;5053623;28;20086;-62
2022/06/14 03:14:43;;;;;;;9.65;4.57;;;;;;;15.65;83.53;100587.72;5053756;28;20032;-62
2022/06/14 03:17:25;;;;;;;7.90;3.70;;;;;;;15.63;84.80;100585.09;5061150;28;20035;-62
2022/06/14 03:20:06;;;;;;;7.30;3.83;;;;;;;15.60;85.07;100581.72;5071834;28;20093;-62
2022/06/14 03:22:40;;;;;;;8.00;4.50;;;;;;;15.54;85.57;100582.84;5051767;28;20036;-62
2022/06/14 03:25:42;;;;;;;8.20;4.28;;;;;;;15.57;86.02;100585.38;5039645;28;20140;-62
2022/06/14 03:28:34;;;;;;;14.20;4.40;;;;;;;15.59;85.30;100586.19;5051646;28;20032;-62
2022/06/14 03:31:23;;;;;;;6.35;4.18;;;;;;;15.59;85.60;100591.56;5051830;28;20425;-62
2022/06/14 03:34:00;;;;;;;8.18;4.10;;;;;;;15.58;85.65;100581.75;5051716;28;20037;-62
2022/06/14 03:36:27;;;;;;;7.32;4.60;;;;;;;15.59;85.92;100580.81;5052544;28;20384;-62
2022/06/14 03:38:57;;;;;;;5.68;4.00;;;;;;;15.58;84.77;100581.75;5053548;28;20491;-62
2022/06/14 03:41:26;;;;;;;8.82;5.22;;;;;;;15.53;85.96;100573.03;5053099;28;20119;-62
2022/06/14 03:43:55;;;;;;;6.85;4.35;;;;;;;15.59;86.53;100591.56;5053172;28;20134;-62
2022/06/14 03:46:21;;;;;;;6.38;4.20;;;;;;;15.59;86.49;100586.19;5052793;28;20020;-62
2022/06/14 03:48:50;;;;;;;8.68;4.68;;;;;;;15.53;86.74;100581.06;5053110;28;20055;-62
2022/06/14 03:51:40;;;;;;;8.13;4.93;;;;;;;15.60;87.19;100590.59;5052841;28;20035;-62
2022/06/14 03:54:36;;;;;;;6.60;4.55;;;;;;;15.54;87.51;100581.97;5046988;28;20030;-62
2022/06/14 03:57:29;;;;;;;6.35;4.32;;;;;;;15.60;87.30;100590.59;5032926;28;20535;-62
2022/06/14 03:59:57;;;;;;;6.55;4.30;;;;;;;15.62;87.08;100601.25;5033283;28;20401;-62
2022/06/14 04:02:54;;;;;;;7.88;4.70;;;;;;;15.63;87.47;100587.78;5032782;28;20036;-62
2022/06/14 04:05:43;;;;;;;10.82;4.50;;;;;;;15.66;88.51;100593.03;5032620;28;20025;-62
2022/06/14 04:08:18;;;;;;;8.63;4.10;;;;;;;15.67;88.30;100589.41;5031209;28;20029;-62
2022/06/14 04:10:51;;;;;;;6.47;4.72;;;;;;;15.71;87.36;100587.47;5030739;28;20056;-62
2022/06/14 04:13:30;;;;;;;;;;;;;;;15.74;87.64;100588.19;5033630;28;20090;-62
2022/06/14 04:16:37;;;;;;;11.63;4.40;;;;;;;15.73;85.29;100585.59;5033663;28;19909;-62
2022/06/14 04:19:35;;;;;;;9.20;4.13;;;;;;;15.85;85.14;100589.53;5034472;28;20095;-62
2022/06/14 04:22:10;;;;;;;9.30;4.38;;;;;;;15.92;86.08;100586.50;5032348;28;20036;-62
2022/06/14 04:24:41;;;;;;;7.78;3.88;;;;;;;15.89;83.52;100580.38;5032406;28;20511;-63
2022/06/14 04:27:16;;;;;;;8.35;4.15;;;;;;;15.89;82.72;100583.06;5032457;28;20072;-63
2022/06/14 04:29:48;;;;;;;9.60;4.60;;;;;;;15.96;82.72;100587.22;5032227;28;20029;-63
2022/06/14 04:32:22;;;;;;;8.75;4.05;;;;;;;16.05;81.85;100585.00;5032235;28;20021;-63
2022/06/14 04:35:01;;;;;;;5.72;3.22;;;;;;;16.13;81.24;100587.34;5032299;28;20059;-63
2022/06/14 04:37:35;;;;;;;6.82;3.92;;;;;;;16.14;81.25;100579.22;5032241;28;20071;-62
2022/06/14 04:40:13;;;;;;;4.68;3.63;;;;;;;16.13;82.05;100576.59;5032264;28;20041;-62
2022/06/14 04:42:49;;;;;;;6.38;4.18;;;;;;;16.30;82.26;100579.34;5032233;28;20512;-62
2022/06/14 04:45:40;;;;;;;8.27;4.55;;;;;;;16.63;79.49;100588.53;5041836;28;20052;-63
2022/06/14 04:48:18;;;;;;;6.38;3.78;;;;;;;16.82;78.34;100578.63;5051819;28;20029;-63
2022/06/14 04:50:51;;;;;;;5.57;3.92;;;;;;;16.98;78.85;100585.00;5051685;28;20025;-63
2022/06/14 04:53:19;;;;;;;6.57;4.40;;;;;;;16.95;77.69;100574.41;5051692;28;20052;-63
2022/06/14 04:55:57;;;;;;;11.68;4.75;;;;;;;17.02;78.82;100583.88;5032281;28;20036;-63
2022/06/14 04:58:34;;;;;;;5.32;3.42;;;;;;;17.05;78.28;100567.59;5034760;28;20912;-63
2022/06/14 05:01:07;;;;;;;7.05;3.92;;;;;;;17.11;78.54;100570.00;5031544;28;20021;-63
2022/06/14 05:03:49;;;;;;;7.50;3.85;;;;;;;17.13;78.45;100573.50;5032047;28;20492;-63
2022/06/14 05:06:21;;;;;;;7.80;4.28;;;;;;;17.21;78.85;100573.97;5031640;28;20040;-63
2022/06/14 05:08:59;;;;;;;8.20;4.38;;;;;;;17.22;79.34;100574.81;5031669;28;20029;-63
2022/06/14 05:11:33;;;;;;;7.38;4.25;;;;;;;17.30;78.43;100576.16;5030281;28;20081;-63
2022/06/14 05:14:08;;;;;;;6.97;4.47;;;;;;;17.43;78.81;100577.28;5029718;28;20032;-63
2022/06/14 05:16:37;;;;;;;5.90;3.85;;;;;;;17.51;78.55;100569.72;5035677;28;20082;-63
2022/06/14 05:19:10;;;;;;;6.88;4.07;;;;;;;17.58;79.06;100568.44;5069766;28;20475;-63
2022/06/14 05:21:44;;;;;;;;;;;;;;;17.75;78.41;100568.44;5071464;28;20029;-63
2022/06/14 05:24:10;;;;;;;8.27;3.72;;;;;;;17.88;77.67;100569.53;5058018;28;19913;-63
2022/06/14 05:27:00;;;;;;;7.95;4.10;;;;;;;17.99;76.61;100561.72;5031239;28;20022;-63
2022/06/14 05:29:58;;;;;;;5.72;3.72;;;;;;;18.15;77.21;100569.88;5049052;28;20025;-63
2022/06/14 05:33:08;;;;;;;5.68;3.55;;;;;;;18.21;74.54;100567.69;5033077;28;20037;-63
2022/06/14 05:35:45;;;;;;;6.15;3.05;;;;;;;18.36;74.23;100556.09;5031115;28;20507;-63
2022/06/14 05:38:32;;;;;;;5.68;3.30;;;;;;;18.46;72.87;100561.84;5031259;28;20025;-63
2022/06/14 05:41:06;;;;;;;7.88;3.97;;;;;;;18.55;72.42;100560.47;5031307;28;20033;-63
2022/06/14 05:43:38;;;;;;;5.57;3.40;;;;;;;18.69;72.55;100569.50;5031359;28;20079;-63
2022/06/14 05:46:06;;;;;;;5.90;3.33;;;;;;;18.78;72.17;100573.50;5031270;28;20025;-63
2022/06/14 05:48:37;;;;;;;5.63;3.03;;;;;;;18.83;69.63;100571.41;5031096;28;20378;-63
2022/06/14 05:51:06;;;;;;;7.38;2.95;;;;;;;18.89;69.87;100576.44;5030850;28;20081;-63
2022/06/14 05:53:49;;;;;;;8.05;3.50;;;;;;;18.95;68.10;100570.69;5030817;28;20056;-63
2022/06/14 05:56:31;;;;;;;6.07;3.38;;;;;;;19.04;68.02;100576.44;5031087;28;20451;-63
2022/06/14 05:59:24;;;;;;;9.02;3.10;;;;;;;19.22;67.83;100572.66;5030860;28;20026;-63
2022/06/14 06:02:28;;;;;;;6.95;4.00;;;;;;;19.42;67.71;100571.50;5031041;28;20026;-63
2022/06/14 06:05:19;;;;;;;7.03;3.20;;;;;;;19.59;65.30;100571.34;5030649;28;20079;-63
2022/06/14 06:08:01;;;;;;;5.95;3.58;;;;;;;19.72;65.94;100564.22;5029686;28;20108;-63
2022/06/14 06:10:43;;;;;;;6.57;3.00;;;;;;;19.76;64.37;100568.50;5029253;28;20053;-63
2022/06/14 06:13:23;;;;;;;5.75;2.85;;;;;;;19.84;62.89;100571.59;5030680;28;20029;-63
2022/06/14 06:16:12;;;;;;;10.35;3.17;;;;;;;19.75;63.44;100568.59;5047378;28;20024;-63
2022/06/14 06:18:50;;;;;;;6.95;2.88;;;;;;;19.86;62.52;100560.69;5029461;28;20143;-63
2022/06/14 06:21:36;;;;;;;5.90;2.85;;;;;;;20.01;62.35;100582.22;5030893;28;20023;-62
2022/06/14 06:24:21;;;;;;;8.02;2.88;;;;;;;20.16;63.63;100575.91;5045360;28;20498;-62
2022/06/14 06:26:55;;;;;;;6.68;3.10;;;;;;;20.21;61.59;100573.78;5030778;28;20040;-62
2022/06/14 06:29:33;;;;;;;4.82;2.75;;;;;;;20.35;63.00;100579.16;5037391;28;20033;-63
2022/06/14 06:31:59;;;;;;;4.88;2.88;;;;;;;20.39;58.68;100567.22;5048777;28;20587;-63
2022/06/14 06:34:25;;;;;;;5.78;2.60;;;;;;;20.65;60.43;100584.44;5049192;28;20488;-63
2022/06/14 06:36:58;;;;;;;4.18;2.35;;;;;;;20.83;59.49;100581.41;5036878;28;20021;-63
2022/06/14 06:39:35;;;;;;;5.25;2.58;;;;;;;21.03;58.18;100585.53;5028620;28;20495;-63
2022/06/14 06:42:08;;;;;;;7.75;2.55;;;;;;;21.02;58.30;100574.81;5028912;28;20056;-63
2022/06/14 06:44:53;;;;;;;6.35;2.33;;;;;;;21.36;60.63;100580.56;5030219;28;20033;-63
2022/06/14 06:47:30;;;;;;;4.20;2.58;;;;;;;21.45;55.53;100577.22;5036793;28;20025;-63
2022/06/14 06:50:02;;;;;;;6.10;2.60;;;;;;;21.57;54.77;100576.38;5035448;28;20114;-62
2022/06/14 06:52:50;;;;;;;5.43;2.67;;;;;;;21.77;58.83;100575.03;5032808;28;20036;-62
2022/06/14 06:55:28;;;;;;;5.25;2.50;;;;;;;21.85;55.13;100575.38;5046135;28;20438;-62
2022/06/14 06:57:55;;;;;;;7.53;2.58;;;;;;;22.01;56.52;100576.88;5048621;28;20028;-62
2022/06/14 07:00:23;;;;;;;4.95;2.22;;;;;;;22.11;54.24;100582.50;5048417;28;20021;-62
2022/06/14 07:02:54;;;;;;;5.07;2.58;;;;;;;22.20;53.39;100581.88;5044447;28;20025;-62
2022/06/14 07:05:20;;;;;;;5.72;2.85;;;;;;;22.32;55.22;100569.28;5030460;28;20489;-63
2022/06/14 07:08:03;;;;;;;6.43;2.53;;;;;;;22.56;55.35;100568.41;5028978;28;20071;-62
2022/06/14 07:10:51;;;;;;;5.43;3.00;;;;;;;22.74;55.32;100561.63;5031687;28;20064;-62
2022/06/14 07:13:33;;;;;;;5.30;2.30;;;;;;;22.80;52.83;100561.16;5032388;28;20061;-62
2022/06/14 07:16:10;;;;;;;6.00;2.17;;;;;;;22.93;52.54;100572.84;5032357;28;20029;-63
2022/06/14 07:18:53;;;;;;;6.13;2.33;;;;;;;23.22;51.91;100562.50;5052131;28;20033;-63
2022/06/14 07:21:23;;;;;;;3.85;2.45;;;;;;;23.43;52.37;100556.34;5037244;28;20083;-63
2022/06/14 07:23:58;;;;;;;4.47;2.78;;;;;;;23.75;51.02;100555.69;5030994;28;20530;-63
2022/06/14 07:26:27;;;;;;;6.03;2.60;;;;;;;23.94;51.69;100555.97;5044570;28;20036;-63
2022/06/14 07:29:01;;;;;;;5.15;2.15;;;;;;;24.27;50.08;100569.63;5029518;28;20112;-63
2022/06/14 07:31:44;;;;;;;4.65;2.70;;;;;;;24.73;51.96;100570.38;5029967;28;20029;-62
2022/06/14 07:34:11;;;;;;;5.07;2.40;;;;;;;24.87;47.53;100563.81;5031862;28;20033;-63
2022/06/14 07:36:39;;;;;;;5.93;2.40;;;;;;;25.29;48.93;100565.66;5046879;28;20114;-63
2022/06/14 07:39:19;;;;;;;5.45;2.40;;;;;;;25.62;46.29;100569.13;5032242;28;20041;-63
2022/06/14 07:41:47;;;;;;;3.90;2.50;;;;;;;25.82;46.05;100570.13;5031751;28;20472;-63
2022/06/14 07:44:25;;;;;;;4.13;2.10;;;;;;;26.07;44.74;100577.94;5031616;28;20110;-63
2022/06/14 07:47:18;;;;;;;4.97;2.05;;;;;;;26.26;44.28;100563.56;5032075;28;20036;-63
2022/06/14 07:49:56;;;;;;;5.50;2.20;;;;;;;26.18;44.42;100561.50;5032035;28;20026;-63
2022/06/14 07:52:29;;;;;;;5.30;2.10;;;;;;;26.50;43.67;100564.97;5043143;28;20484;-63
2022/06/14 07:55:07;;;;;;;;;;;;;;;26.74;42.55;100559.16;5039058;28;20511;-63
2022/06/14 07:57:39;;;;;;;7.05;2.25;;;;;;;27.02;43.29;100548.31;5040511;28;20003;-63
2022/06/14 08:03:17;;;;;;;4.32;2.15;;;;;;;26.71;42.01;100565.78;5031654;28;20405;-63
2022/06/14 08:05:46;;;;;;;6.60;2.00;;;;;;;26.94;43.33;100553.63;5037820;28;20029;-63
2022/06/14 08:08:17;;;;;;;3.47;1.83;;;;;;;27.34;41.43;100548.09;5052685;28;20528;-63
2022/06/14 08:10:47;;;;;;;7.97;2.42;;;;;;;27.80;41.44;100550.94;5042333;28;20048;-63
2022/06/14 08:13:25;;;;;;;6.22;2.30;;;;;;;27.99;40.81;100545.47;5043975;28;20106;-63
2022/06/14 08:15:55;;;;;;;3.53;2.30;;;;;;;28.22;40.77;100541.38;5045323;28;20021;-63
2022/06/14 08:19:10;;;;;;;4.32;1.80;;;;;;;28.63;42.05;100539.22;5049940;28;20472;-63
2022/06/14 08:21:42;;;;;;;4.30;2.33;;;;;;;28.71;39.74;100531.09;5043111;28;20052;-64
2022/06/14 08:24:14;;;;;;;4.43;2.10;;;;;;;29.15;40.32;100524.78;5046603;28;20138;-64
2022/06/14 08:26:49;;;;;;;5.13;2.08;;;;;;;29.22;40.47;100526.75;5034138;28;20268;-64
2022/06/14 08:29:20;;;;;;;4.38;1.88;;;;;;;29.32;39.06;100522.06;5031051;28;20508;-64
2022/06/14 08:31:51;;;;;;;3.83;1.90;;;;;;;29.43;38.39;100520.94;5030869;28;20079;-64
2022/06/14 08:34:34;;;;;;;7.32;2.33;;;;;;;29.42;39.93;100525.53;5030790;28;20048;-64
2022/06/14 08:37:08;;;;;;;5.95;1.95;;;;;;;29.41;38.00;100520.22;5030381;28;20029;-64
2022/06/14 08:39:42;;;;;;;6.90;2.58;;;;;;;29.60;40.13;100520.06;5030890;28;20033;-64
2022/06/14 08:42:34;;;;;;;3.60;2.20;;;;;;;29.73;36.92;100515.06;5030847;28;20029;-64
2022/06/14 08:45:12;;;;;;;5.43;2.47;;;;;;;29.69;37.40;100513.66;5030528;28;20021;-64
2022/06/14 08:47:38;;;;;;;3.95;2.00;;;;;;;29.81;38.40;100512.38;5030800;28;20074;-64
2022/06/14 08:50:10;;;;;;;5.55;2.13;;;;;;;29.85;38.81;100512.91;5030330;28;20025;-64
2022/06/14 08:53:13;;;;;;;7.47;2.00;;;;;;;29.70;37.98;100509.91;5030571;28;20021;-64
2022/06/14 08:56:03;;;;;;;4.95;2.00;;;;;;;29.64;38.76;100505.88;5031015;28;20029;-64
2022/06/14 08:59:05;;;;;;;5.50;2.03;;;;;;;29.67;36.05;100509.34;5047405;28;20040;-64
2022/06/14 09:02:01;;;;;;;3.58;1.88;;;;;;;29.71;36.98;100506.13;5049530;28;20043;-64
2022/06/14 09:05:03;;;;;;;4.60;2.20;;;;;;;29.70;36.98;100509.91;5049896;28;20021;-64
2022/06/14 09:07:58;;;;;;;4.30;2.08;;;;;;;29.97;35.65;100504.25;5049755;28;20041;-64
2022/06/14 09:10:29;;;;;;;5.30;2.10;;;;;;;30.10;37.03;100493.69;5049105;28;20572;-64
2022/06/14 09:13:50;;;;;;;3.95;1.75;;;;;;;30.22;39.52;100492.44;5049616;28;20079;-64
2022/06/14 09:16:40;;;;;;;4.97;1.70;;;;;;;30.44;36.93;100491.88;5047232;28;20041;-64
2022/06/14 09:19:24;;;;;;;4.80;1.90;;;;;;;30.72;38.08;100493.34;5050721;28;20499;-64
2022/06/14 09:21:57;;;;;;;3.30;1.70;;;;;;;30.74;37.30;100469.28;5051726;28;20427;-64
2022/06/14 09:24:41;;;;;;;2.97;1.90;;;;;;;30.95;36.58;100495.47;5043029;28;20025;-64
2022/06/14 09:27:43;;;;;;;4.53;1.95;;;;;;;31.16;37.74;100495.84;5031319;28;20768;-64
2022/06/14 09:30:29;;;;;;;9.43;2.08;;;;;;;31.18;36.32;100489.19;5032145;28;20460;-64
2022/06/14 09:33:32;;;;;;;5.28;2.20;;;;;;;31.05;33.68;100493.44;5031852;28;20064;-64
2022/06/14 09:36:00;;;;;;;5.65;2.05;;;;;;;30.83;33.98;100487.56;5034625;28;20437;-64
2022/06/14 09:38:58;;;;;;;6.45;2.00;;;;;;;30.98;34.18;100486.91;5028588;28;20026;-64
2022/06/14 09:41:46;;;;;;;4.47;1.90;;;;;;;31.32;35.87;100485.78;5027261;28;20033;-64
2022/06/14 09:44:45;;;;;;;4.07;1.70;;;;;;;31.45;33.07;100479.78;5028470;28;20477;-64
2022/06/14 09:47:23;;;;;;;7.18;2.30;;;;;;;31.68;34.86;100478.88;5029649;28;20029;-64
2022/06/14 09:49:57;;;;;;;4.25;1.88;;;;;;;31.56;34.56;100471.16;5029357;28;20033;-64
2022/06/14 09:53:00;;;;;;;6.32;1.70;;;;;;;31.46;35.65;100464.97;5029918;28;20029;-64
2022/06/14 09:56:03;;;;;;;6.65;1.85;;;;;;;31.72;34.40;100466.50;5030991;28;20029;-64
2022/06/14 09:58:31;;;;;;;5.15;2.10;;;;;;;31.90;35.14;100464.44;5030898;28;20039;-64
2022/06/14 10:01:24;;;;;;;2.65;1.73;;;;;;;31.84;35.48;100459.63;5030821;28;20032;-64
2022/06/14 10:04:02;;;;;;;6.18;1.88;;;;;;;31.87;36.48;100459.31;5031036;28;20052;-64
2022/06/14 10:06:58;;;;;;;3.70;1.80;;;;;;;31.98;36.25;100460.81;5029992;28;20029;-64
2022/06/14 10:09:54;;;;;;;6.18;1.67;;;;;;;31.92;35.97;100458.75;5029391;28;20061;-64
2022/06/14 10:12:26;;;;;;;3.92;2.15;;;;;;;31.80;37.12;100446.38;5028897;28;20037;-64
2022/06/14 10:15:09;;;;;;;6.30;2.00;;;;;;;31.93;34.44;100447.56;5039976;28;20110;-64
2022/06/14 10:17:43;;;;;;;5.60;2.05;;;;;;;31.85;34.49;100443.94;5040972;28;20028;-64
2022/06/14 10:20:43;;;;;;;4.72;1.80;;;;;;;32.10;33.64;100448.38;5035330;28;20025;-64
2022/06/14 10:23:11;;;;;;;5.22;2.00;;;;;;;31.90;32.82;100441.56;5030653;28;20117;-64
2022/06/14 10:29:01;;;;;;;4.65;1.45;;;;;;;32.19;33.88;100441.84;5033097;28;20048;-65
2022/06/14 10:31:42;;;;;;;4.05;2.03;;;;;;;32.24;34.45;100433.88;5030428;28;20065;-66
2022/06/14 10:34:25;;;;;;;4.00;1.70;;;;;;;32.14;32.32;100422.25;5030697;28;20456;-66
2022/06/14 10:37:29;;;;;;;5.15;1.63;;;;;;;32.64;33.96;100425.44;5030543;28;20493;-66
2022/06/14 10:40:01;;;;;;;4.78;1.90;;;;;;;32.76;32.37;100424.00;5030026;28;20056;-66
2022/06/14 10:43:08;;;;;;;5.75;1.85;;;;;;;32.77;33.90;100414.69;5030746;28;20025;-66
2022/06/14 10:45:42;;;;;;;5.30;2.42;;;;;;;32.59;33.86;100422.38;5033493;28;20045;-66
2022/06/14 10:48:42;;;;;;;3.17;1.60;;;;;;;32.47;34.31;100411.97;5034258;28;20029;-66
2022/06/14 10:51:29;;;;;;;3.60;1.90;;;;;;;32.44;33.73;100421.44;5033086;28;20405;-66
2022/06/14 10:54:08;;;;;;;4.55;1.90;;;;;;;32.77;34.13;100414.69;5034483;28;20255;-66
2022/06/14 10:57:05;;;;;;;4.18;1.80;;;;;;;33.21;34.32;100415.75;5033879;28;20107;-66
2022/06/14 10:59:59;;;;;;;3.80;1.90;;;;;;;33.43;31.47;100415.97;5034285;28;20480;-66
2022/06/14 11:02:55;;;;;;;3.22;1.52;;;;;;;33.06;32.88;100406.59;5053539;28;20098;-66
2022/06/14 11:05:58;;;;;;;3.83;1.63;;;;;;;33.52;32.56;100401.91;5042033;28;20029;-66
2022/06/14 11:08:35;;;;;;;7.35;2.33;;;;;;;33.47;31.67;100398.84;5047212;28;20028;-66
2022/06/14 11:11:00;;;;;;;3.78;1.83;;;;;;;33.41;32.87;100390.44;5033570;28;20076;-66
2022/06/14 11:13:39;;;;;;;4.38;2.03;;;;;;;33.55;32.03;100389.63;5033712;28;20065;-66
2022/06/14 11:16:21;;;;;;;3.33;1.90;;;;;;;33.69;31.27;100388.81;5032311;28;20266;-66
2022/06/14 11:18:57;;;;;;;4.90;1.80;;;;;;;33.87;32.14;100379.06;5032371;28;20101;-65
2022/06/14 11:21:43;;;;;;;3.75;2.10;;;;;;;33.93;31.97;100380.25;5032346;28;20017;-65
2022/06/14 11:24:16;;;;;;;6.57;2.08;;;;;;;33.94;31.27;100365.44;5032294;28;20025;-65
2022/06/14 11:27:08;;;;;;;7.38;2.13;;;;;;;33.58;31.27;100373.56;5032157;28;20026;-66
2022/06/14 11:29:47;;;;;;;5.63;2.17;;;;;;;33.59;32.83;100367.00;5032843;28;20617;-65
2022/06/14 11:32:35;;;;;;;6.65;3.08;;;;;;;33.87;32.92;100375.47;5033412;28;20494;-65
2022/06/14 11:35:01;;;;;;;3.88;2.05;;;;;;;34.07;32.94;100360.09;5033482;28;20064;-65
2022/06/14 11:37:31;;;;;;;3.50;1.80;;;;;;;34.29;32.30;100356.31;5033338;28;20065;-65
2022/06/14 11:40:13;;;;;;;5.50;2.33;;;;;;;34.06;31.33;100375.78;5041715;28;20036;-65
2022/06/14 11:43:05;;;;;;;4.20;2.25;;;;;;;34.16;31.56;100358.91;5041202;28;20033;-66
2022/06/14 11:45:41;;;;;;;3.80;1.77;;;;;;;34.06;30.76;100347.31;5032205;28;20045;-66
2022/06/14 11:48:15;;;;;;;6.13;1.90;;;;;;;34.13;32.18;100353.78;5033329;28;20443;-66
2022/06/14 11:51:16;;;;;;;3.25;1.83;;;;;;;34.44;31.22;100346.13;5033098;28;20113;-66
2022/06/14 11:54:05;;;;;;;7.55;2.10;;;;;;;34.75;32.64;100343.91;5032945;28;20025;-66
2022/06/14 11:56:46;;;;;;;5.18;1.90;;;;;;;35.00;31.92;100348.03;5032929;28;20484;-66
2022/06/14 11:59:33;;;;;;;6.05;2.17;;;;;;;34.98;33.16;100339.06;5032986;28;20041;-66
2022/06/14 12:02:41;;;;;;;5.60;2.30;;;;;;;35.20;31.19;100329.69;5032749;28;20025;-66
2022/06/14 12:05:38;;;;;;;3.85;1.90;;;;;;;35.29;31.15;100331.25;5032372;28;20029;-66
2022/06/14 12:08:18;;;;;;;5.35;1.98;;;;;;;34.91;31.28;100327.06;5032621;28;20036;-66
2022/06/14 12:11:06;;;;;;;4.72;2.33;;;;;;;35.02;29.92;100322.94;5032273;28;20550;-66
2022/06/14 12:13:47;;;;;;;5.55;2.00;;;;;;;35.23;30.77;100320.13;5032392;28;20500;-66
2022/06/14 12:16:24;;;;;;;3.38;1.70;;;;;;;35.17;31.36;100310.75;5035564;28;20028;-66
2022/06/14 12:19:08;;;;;;;4.25;2.10;;;;;;;35.02;30.95;100304.44;5057049;28;20067;-66
2022/06/14 12:21:58;;;;;;;5.53;2.08;;;;;;;35.08;30.85;100311.94;5047850;28;20029;-66
2022/06/14 12:27:19;;;;;;;;;;;;;;;35.16;30.27;100308.16;5032786;28;20527;-66
2022/06/14 12:29:51;;;;;;;5.05;1.58;;;;;;;35.06;30.53;100307.66;5032047;28;20388;-66
2022/06/14 12:32:35;;;;;;;4.13;1.92;;;;;;;35.09;30.21;100307.25;5031630;28;20363;-66
2022/06/14 12:35:10;;;;;;;6.15;1.95;;;;;;;34.82;31.49;100303.38;5031769;28;20029;-66
2022/06/14 12:38:02;;;;;;;5.53;2.58;;;;;;;34.84;31.92;100298.50;5031828;28;20028;-66